sensor_id;sensor_type;location;lat;lon;timestamp;pressure;altitude;pressure_sealevel;temperature;humidity
63907;BME280;50075;49.484;11.238;2022-11-20T00:01:37;97364.81;;;-0.14;83.40
63907;BME280;50075;49.484;11.238;2022-11-20T00:04:03;97369.88;;;-0.16;83.95
63907;BME280;50075;49.484;11.238;2022-11-20T00:06:28;97350.84;;;-0.25;84.42
63907;BME280;50075;49.484;11.238;2022-11-20T00:08:55;97349.22;;;-0.23;84.86
63907;BME280;50075;49.484;11.238;2022-11-20T00:11:23;97357.03;;;-0.17;85.17
63907;BME280;50075;49.484;11.238;2022-11-20T00:13:50;97361.75;;;0.30;83.97
63907;BME280;50075;49.484;11.238;2022-11-20T00:16:20;97361.34;;;0.47;82.91
63907;BME280;50075;49.484;11.238;2022-11-20T00:18:46;97363.25;;;0.54;82.36
63907;BME280;50075;49.484;11.238;2022-11-20T00:21:20;97359.34;;;0.69;81.57
63907;BME280;50075;49.484;11.238;2022-11-20T00:23:46;97351.03;;;0.77;81.19
63907;BME280;50075;49.484;11.238;2022-11-20T00:26:14;97359.63;;;0.80;81.02
63907;BME280;50075;49.484;11.238;2022-11-20T00:28:40;97352.66;;;0.74;81.05
63907;BME280;50075;49.484;11.238;2022-11-20T00:31:09;97351.22;;;0.85;80.91
63907;BME280;50075;49.484;11.238;2022-11-20T00:33:35;97358.16;;;0.89;80.65
63907;BME280;50075;49.484;11.238;2022-11-20T00:36:08;97365.25;;;1.00;80.64
63907;BME280;50075;49.484;11.238;2022-11-20T00:38:34;97367.69;;;0.95;80.66
63907;BME280;50075;49.484;11.238;2022-11-20T00:41:02;97356.84;;;1.06;80.29
63907;BME280;50075;49.484;11.238;2022-11-20T00:43:28;97352.75;;;1.14;80.19
63907;BME280;50075;49.484;11.238;2022-11-20T00:46:04;97339.25;;;1.20;79.90
63907;BME280;50075;49.484;11.238;2022-11-20T00:48:30;97354.47;;;1.13;80.14
63907;BME280;50075;49.484;11.238;2022-11-20T00:50:56;97354.47;;;1.13;79.83
63907;BME280;50075;49.484;11.238;2022-11-20T00:53:22;97354.53;;;1.15;80.15
63907;BME280;50075;49.484;11.238;2022-11-20T00:55:58;97353.69;;;1.16;80.20
63907;BME280;50075;49.484;11.238;2022-11-20T00:58:25;97340.91;;;1.17;80.58
63907;BME280;50075;49.484;11.238;2022-11-20T01:00:53;97347.59;;;1.12;80.31
63907;BME280;50075;49.484;11.238;2022-11-20T01:03:18;97351.88;;;1.12;80.26
63907;BME280;50075;49.484;11.238;2022-11-20T01:05:44;97364.84;;;1.20;79.74
63907;BME280;50075;49.484;11.238;2022-11-20T01:08:09;97354.56;;;1.18;80.34
63907;BME280;50075;49.484;11.238;2022-11-20T01:10:35;97346.66;;;1.09;80.69
63907;BME280;50075;49.484;11.238;2022-11-20T01:13:01;97342.00;;;1.29;80.61
63907;BME280;50075;49.484;11.238;2022-11-20T01:15:45;97359.97;;;1.30;80.27
63907;BME280;50075;49.484;11.238;2022-11-20T01:18:10;97365.78;;;1.22;80.40
63907;BME280;50075;49.484;11.238;2022-11-20T01:20:36;97368.03;;;1.09;80.98
63907;BME280;50075;49.484;11.238;2022-11-20T01:23:02;97355.41;;;1.17;80.97
63907;BME280;50075;49.484;11.238;2022-11-20T01:25:28;97365.78;;;1.23;80.63
63907;BME280;50075;49.484;11.238;2022-11-20T01:27:53;97369.31;;;1.27;80.79
63907;BME280;50075;49.484;11.238;2022-11-20T01:30:18;97369.38;;;1.30;80.70
63907;BME280;50075;49.484;11.238;2022-11-20T01:32:44;97366.88;;;1.33;80.47
63907;BME280;50075;49.484;11.238;2022-11-20T01:35:09;97360.59;;;1.20;80.75
63907;BME280;50075;49.484;11.238;2022-11-20T01:37:35;97367.59;;;1.26;81.04
63907;BME280;50075;49.484;11.238;2022-11-20T01:40:01;97349.78;;;1.32;80.93
63907;BME280;50075;49.484;11.238;2022-11-20T01:42:26;97347.28;;;1.35;80.87
63907;BME280;50075;49.484;11.238;2022-11-20T01:45:50;97343.81;;;1.33;80.78
63907;BME280;50075;49.484;11.238;2022-11-20T01:48:21;97349.69;;;1.29;81.19
63907;BME280;50075;49.484;11.238;2022-11-20T01:50:48;97350.03;;;1.43;80.72
63907;BME280;50075;49.484;11.238;2022-11-20T01:53:17;97355.19;;;1.45;80.74
63907;BME280;50075;49.484;11.238;2022-11-20T01:55:49;97351.38;;;1.27;80.94
63907;BME280;50075;49.484;11.238;2022-11-20T01:58:15;97354.72;;;1.24;81.09
63907;BME280;50075;49.484;11.238;2022-11-20T02:00:41;97356.25;;;1.16;81.67
63907;BME280;50075;49.484;11.238;2022-11-20T02:03:11;97353.00;;;1.25;81.80
63907;BME280;50075;49.484;11.238;2022-11-20T02:05:43;97346.09;;;1.21;81.89
63907;BME280;50075;49.484;11.238;2022-11-20T02:08:10;97341.03;;;1.24;81.76
63907;BME280;50075;49.484;11.238;2022-11-20T02:10:37;97345.63;;;1.37;81.51
63907;BME280;50075;49.484;11.238;2022-11-20T02:13:02;97336.28;;;1.39;81.28
63907;BME280;50075;49.484;11.238;2022-11-20T02:15:46;97341.91;;;1.24;81.87
63907;BME280;50075;49.484;11.238;2022-11-20T02:18:16;97343.25;;;1.47;81.38
63907;BME280;50075;49.484;11.238;2022-11-20T02:20:45;97339.44;;;1.29;81.43
63907;BME280;50075;49.484;11.238;2022-11-20T02:23:12;97337.81;;;1.31;81.58
63907;BME280;50075;49.484;11.238;2022-11-20T02:25:38;97335.28;;;1.33;81.68
63907;BME280;50075;49.484;11.238;2022-11-20T02:28:05;97336.31;;;1.42;81.30
63907;BME280;50075;49.484;11.238;2022-11-20T02:30:31;97335.28;;;1.34;81.27
63907;BME280;50075;49.484;11.238;2022-11-20T02:32:57;97340.84;;;1.14;82.17
63907;BME280;50075;49.484;11.238;2022-11-20T02:37:50;97352.94;;;1.20;82.32
63907;BME280;50075;49.484;11.238;2022-11-20T02:40:18;97342.81;;;1.26;82.36
63907;BME280;50075;49.484;11.238;2022-11-20T02:42:44;97342.94;;;1.31;82.39
63907;BME280;50075;49.484;11.238;2022-11-20T02:45:10;97353.47;;;1.43;82.02
63907;BME280;50075;49.484;11.238;2022-11-20T02:47:35;97340.50;;;1.37;82.21
63907;BME280;50075;49.484;11.238;2022-11-20T02:50:01;97341.41;;;1.39;82.18
63907;BME280;50075;49.484;11.238;2022-11-20T02:52:26;97344.06;;;1.44;81.96
63907;BME280;50075;49.484;11.238;2022-11-20T02:54:52;97337.13;;;1.40;81.80
63907;BME280;50075;49.484;11.238;2022-11-20T02:57:17;97336.38;;;1.44;81.77
63907;BME280;50075;49.484;11.238;2022-11-20T02:59:42;97328.59;;;1.39;81.68
63907;BME280;50075;49.484;11.238;2022-11-20T03:02:08;97324.50;;;1.48;81.67
63907;BME280;50075;49.484;11.238;2022-11-20T03:04:33;97332.19;;;1.49;81.55
63907;BME280;50075;49.484;11.238;2022-11-20T03:06:58;97334.53;;;1.37;81.88
63907;BME280;50075;49.484;11.238;2022-11-20T03:09:24;97338.13;;;1.45;81.88
63907;BME280;50075;49.484;11.238;2022-11-20T03:11:49;97336.72;;;1.21;82.42
63907;BME280;50075;49.484;11.238;2022-11-20T03:14:14;97334.53;;;1.37;82.42
63907;BME280;50075;49.484;11.238;2022-11-20T03:16:40;97340.25;;;1.26;82.32
63907;BME280;50075;49.484;11.238;2022-11-20T03:19:05;97331.00;;;1.33;82.58
63907;BME280;50075;49.484;11.238;2022-11-20T03:21:33;97327.63;;;1.36;82.32
63907;BME280;50075;49.484;11.238;2022-11-20T03:23:59;97326.88;;;1.40;82.24
63907;BME280;50075;49.484;11.238;2022-11-20T03:26:26;97330.28;;;1.39;82.45
63907;BME280;50075;49.484;11.238;2022-11-20T03:28:54;97329.41;;;1.37;82.52
63907;BME280;50075;49.484;11.238;2022-11-20T03:31:23;97329.53;;;1.43;82.49
63907;BME280;50075;49.484;11.238;2022-11-20T03:33:49;97330.84;;;1.25;82.44
63907;BME280;50075;49.484;11.238;2022-11-20T03:36:17;97322.56;;;1.37;82.52
63907;BME280;50075;49.484;11.238;2022-11-20T03:38:43;97318.38;;;1.42;82.30
63907;BME280;50075;49.484;11.238;2022-11-20T03:41:11;97319.88;;;1.31;82.30
63907;BME280;50075;49.484;11.238;2022-11-20T03:43:37;97317.22;;;1.28;82.38
63907;BME280;50075;49.484;11.238;2022-11-20T03:46:03;97317.34;;;1.34;82.57
63907;BME280;50075;49.484;11.238;2022-11-20T03:48:29;97313.81;;;1.29;82.29
63907;BME280;50075;49.484;11.238;2022-11-20T03:51:08;97318.94;;;1.29;82.65
63907;BME280;50075;49.484;11.238;2022-11-20T03:53:34;97311.22;;;1.27;82.64
63907;BME280;50075;49.484;11.238;2022-11-20T03:55:59;97311.19;;;1.24;82.71
63907;BME280;50075;49.484;11.238;2022-11-20T03:58:25;97306.06;;;1.24;82.78
63907;BME280;50075;49.484;11.238;2022-11-20T04:00:50;97314.59;;;1.25;82.79
63907;BME280;50075;49.484;11.238;2022-11-20T04:03:15;97311.50;;;1.40;82.43
63907;BME280;50075;49.484;11.238;2022-11-20T04:05:40;97316.53;;;1.35;82.14
63907;BME280;50075;49.484;11.238;2022-11-20T04:08:06;97315.50;;;1.27;82.46
63907;BME280;50075;49.484;11.238;2022-11-20T04:10:31;97315.44;;;1.24;82.73
63907;BME280;50075;49.484;11.238;2022-11-20T04:12:56;97308.69;;;1.29;82.64
63907;BME280;50075;49.484;11.238;2022-11-20T04:15:22;97312.25;;;1.36;82.77
63907;BME280;50075;49.484;11.238;2022-11-20T04:17:47;97308.69;;;1.29;82.74
63907;BME280;50075;49.484;11.238;2022-11-20T04:20:12;97310.34;;;1.25;82.71
63907;BME280;50075;49.484;11.238;2022-11-20T04:22:38;97313.03;;;1.30;82.87
63907;BME280;50075;49.484;11.238;2022-11-20T04:25:03;97314.78;;;1.34;82.99
63907;BME280;50075;49.484;11.238;2022-11-20T04:27:30;97309.53;;;1.28;82.87
63907;BME280;50075;49.484;11.238;2022-11-20T04:29:55;97301.84;;;1.28;83.00
63907;BME280;50075;49.484;11.238;2022-11-20T04:32:21;97296.84;;;1.33;82.72
63907;BME280;50075;49.484;11.238;2022-11-20T04:34:46;97300.97;;;1.27;83.12
63907;BME280;50075;49.484;11.238;2022-11-20T04:37:11;97299.41;;;1.33;82.91
63907;BME280;50075;49.484;11.238;2022-11-20T04:39:37;97296.16;;;1.41;82.94
63907;BME280;50075;49.484;11.238;2022-11-20T04:42:02;97298.66;;;1.38;82.82
63907;BME280;50075;49.484;11.238;2022-11-20T04:44:46;97295.38;;;1.44;82.51
63907;BME280;50075;49.484;11.238;2022-11-20T04:47:12;97297.84;;;1.39;82.85
63907;BME280;50075;49.484;11.238;2022-11-20T04:49:37;97302.84;;;1.35;82.63
63907;BME280;50075;49.484;11.238;2022-11-20T04:52:02;97297.59;;;1.28;82.90
63907;BME280;50075;49.484;11.238;2022-11-20T04:54:28;97298.34;;;1.23;83.21
63907;BME280;50075;49.484;11.238;2022-11-20T04:56:53;97290.72;;;1.27;83.26
63907;BME280;50075;49.484;11.238;2022-11-20T04:59:18;97295.09;;;1.30;83.06
63907;BME280;50075;49.484;11.238;2022-11-20T05:01:44;97298.28;;;1.21;83.26
63907;BME280;50075;49.484;11.238;2022-11-20T05:04:09;97300.06;;;1.24;83.31
63907;BME280;50075;49.484;11.238;2022-11-20T05:06:34;97292.63;;;1.36;83.11
63907;BME280;50075;49.484;11.238;2022-11-20T05:09:00;97290.16;;;1.39;83.08
63907;BME280;50075;49.484;11.238;2022-11-20T05:11:26;97298.44;;;1.29;83.09
63907;BME280;50075;49.484;11.238;2022-11-20T05:13:54;97288.28;;;1.32;83.45
63907;BME280;50075;49.484;11.238;2022-11-20T05:16:23;97286.56;;;1.31;83.39
63907;BME280;50075;49.484;11.238;2022-11-20T05:18:50;97289.31;;;1.40;83.55
63907;BME280;50075;49.484;11.238;2022-11-20T05:21:16;97290.19;;;1.42;83.44
63907;BME280;50075;49.484;11.238;2022-11-20T05:23:43;97289.88;;;1.27;83.48
63907;BME280;50075;49.484;11.238;2022-11-20T05:26:13;97293.56;;;1.40;83.24
63907;BME280;50075;49.484;11.238;2022-11-20T05:28:39;97289.16;;;1.34;83.31
63907;BME280;50075;49.484;11.238;2022-11-20T05:33:31;97285.03;;;1.39;83.57
63907;BME280;50075;49.484;11.238;2022-11-20T05:35:59;97282.31;;;1.33;83.82
63907;BME280;50075;49.484;11.238;2022-11-20T05:38:25;97282.50;;;1.41;83.54
63907;BME280;50075;49.484;11.238;2022-11-20T05:40:50;97282.50;;;1.41;83.50
63907;BME280;50075;49.484;11.238;2022-11-20T05:43:15;97285.06;;;1.41;83.58
63907;BME280;50075;49.484;11.238;2022-11-20T05:45:41;97279.25;;;1.50;83.40
63907;BME280;50075;49.484;11.238;2022-11-20T05:48:06;97277.50;;;1.47;83.40
63907;BME280;50075;49.484;11.238;2022-11-20T05:50:31;97273.19;;;1.45;83.63
63907;BME280;50075;49.484;11.238;2022-11-20T05:53:00;97271.72;;;1.58;83.40
63907;BME280;50075;49.484;11.238;2022-11-20T05:55:26;97271.59;;;1.51;83.29
63907;BME280;50075;49.484;11.238;2022-11-20T05:57:54;97267.28;;;1.49;83.51
63907;BME280;50075;49.484;11.238;2022-11-20T06:00:20;97273.38;;;1.54;83.53
63907;BME280;50075;49.484;11.238;2022-11-20T06:02:45;97272.50;;;1.53;83.20
63907;BME280;50075;49.484;11.238;2022-11-20T06:05:10;97272.50;;;1.53;83.44
63907;BME280;50075;49.484;11.238;2022-11-20T06:07:36;97276.50;;;1.40;83.63
63907;BME280;50075;49.484;11.238;2022-11-20T06:10:01;97268.66;;;1.33;84.08
63907;BME280;50075;49.484;11.238;2022-11-20T06:12:26;97270.53;;;1.41;83.88
63907;BME280;50075;49.484;11.238;2022-11-20T06:14:52;97276.50;;;1.40;84.05
63907;BME280;50075;49.484;11.238;2022-11-20T06:17:17;97279.25;;;1.50;83.66
63907;BME280;50075;49.484;11.238;2022-11-20T06:19:42;97277.72;;;1.58;83.54
63907;BME280;50075;49.484;11.238;2022-11-20T06:22:08;97275.78;;;1.46;83.84
63907;BME280;50075;49.484;11.238;2022-11-20T06:24:33;97274.25;;;1.54;83.76
63907;BME280;50075;49.484;11.238;2022-11-20T06:26:58;97275.94;;;1.54;83.70
63907;BME280;50075;49.484;11.238;2022-11-20T06:29:24;97270.75;;;1.52;83.60
63907;BME280;50075;49.484;11.238;2022-11-20T06:31:49;97273.28;;;1.51;83.57
63907;BME280;50075;49.484;11.238;2022-11-20T06:34:14;97270.66;;;1.46;84.14
63907;BME280;50075;49.484;11.238;2022-11-20T06:36:40;97268.28;;;1.55;83.71
63907;BME280;50075;49.484;11.238;2022-11-20T06:39:05;97269.94;;;1.53;83.64
63907;BME280;50075;49.484;11.238;2022-11-20T06:41:30;97273.19;;;1.45;83.71
63907;BME280;50075;49.484;11.238;2022-11-20T06:43:56;97275.81;;;1.49;83.85
63907;BME280;50075;49.484;11.238;2022-11-20T06:46:21;97280.22;;;1.55;84.34
63907;BME280;50075;49.484;11.238;2022-11-20T06:48:48;97281.75;;;1.47;84.30
63907;BME280;50075;49.484;11.238;2022-11-20T06:51:14;97279.34;;;1.53;84.04
63907;BME280;50075;49.484;11.238;2022-11-20T06:53:39;97290.34;;;1.49;84.42
63907;BME280;50075;49.484;11.238;2022-11-20T06:56:06;97280.22;;;1.55;84.21
63907;BME280;50075;49.484;11.238;2022-11-20T06:58:32;97290.63;;;1.61;84.07
63907;BME280;50075;49.484;11.238;2022-11-20T07:00:59;97293.13;;;1.60;84.14
63907;BME280;50075;49.484;11.238;2022-11-20T07:03:25;97298.00;;;1.47;84.37
63907;BME280;50075;49.484;11.238;2022-11-20T07:05:50;97294.88;;;1.61;84.24
63907;BME280;50075;49.484;11.238;2022-11-20T07:08:15;97301.53;;;1.52;84.43
63907;BME280;50075;49.484;11.238;2022-11-20T07:10:41;97299.97;;;1.59;84.46
63907;BME280;50075;49.484;11.238;2022-11-20T07:13:06;97295.63;;;1.56;84.13
63907;BME280;50075;49.484;11.238;2022-11-20T07:15:32;97296.53;;;1.59;84.20
63907;BME280;50075;49.484;11.238;2022-11-20T07:18:01;97304.38;;;1.66;84.17
63907;BME280;50075;49.484;11.238;2022-11-20T07:20:26;97302.66;;;1.65;84.37
63907;BME280;50075;49.484;11.238;2022-11-20T07:22:56;97307.72;;;1.62;84.60
63907;BME280;50075;49.484;11.238;2022-11-20T07:25:22;97296.69;;;1.66;84.72
63907;BME280;50075;49.484;11.238;2022-11-20T07:27:48;97303.59;;;1.69;84.95
63907;BME280;50075;49.484;11.238;2022-11-20T07:30:14;97299.00;;;1.54;85.16
63907;BME280;50075;49.484;11.238;2022-11-20T07:32:40;97299.19;;;1.63;85.30
63907;BME280;50075;49.484;11.238;2022-11-20T07:35:05;97297.53;;;1.65;85.43
63907;BME280;50075;49.484;11.238;2022-11-20T07:37:34;97298.41;;;1.67;85.59
63907;BME280;50075;49.484;11.238;2022-11-20T07:39:59;97306.25;;;1.75;85.56
63907;BME280;50075;49.484;11.238;2022-11-20T07:42:24;97310.63;;;1.78;85.61
63907;BME280;50075;49.484;11.238;2022-11-20T07:44:50;97303.91;;;1.85;85.45
63907;BME280;50075;49.484;11.238;2022-11-20T07:47:15;97303.84;;;1.81;85.44
63907;BME280;50075;49.484;11.238;2022-11-20T07:49:40;97305.88;;;1.98;85.34
63907;BME280;50075;49.484;11.238;2022-11-20T07:52:05;97307.38;;;1.88;85.60
63907;BME280;50075;49.484;11.238;2022-11-20T07:54:31;97304.34;;;1.65;84.98
63907;BME280;50075;49.484;11.238;2022-11-20T07:56:56;97312.19;;;1.73;85.19
63907;BME280;50075;49.484;11.238;2022-11-20T07:59:22;97309.06;;;1.88;85.91
63907;BME280;50075;49.484;11.238;2022-11-20T08:01:47;97306.22;;;2.17;85.65
63907;BME280;50075;49.484;11.238;2022-11-20T08:04:12;97308.22;;;2.32;85.30
63907;BME280;50075;49.484;11.238;2022-11-20T08:06:39;97312.50;;;2.33;84.60
63907;BME280;50075;49.484;11.238;2022-11-20T08:09:04;97312.63;;;2.39;84.30
63907;BME280;50075;49.484;11.238;2022-11-20T08:11:29;97308.53;;;2.49;83.85
63907;BME280;50075;49.484;11.238;2022-11-20T08:14:13;97304.88;;;2.36;83.74
63907;BME280;50075;49.484;11.238;2022-11-20T08:19:04;97308.53;;;2.51;83.44
63907;BME280;50075;49.484;11.238;2022-11-20T08:21:30;97307.50;;;2.39;83.26
63907;BME280;50075;49.484;11.238;2022-11-20T08:23:57;97306.47;;;2.29;83.20
63907;BME280;50075;49.484;11.238;2022-11-20T08:26:22;97308.09;;;2.24;83.21
63907;BME280;50075;49.484;11.238;2022-11-20T08:28:48;97306.31;;;2.21;83.20
63907;BME280;50075;49.484;11.238;2022-11-20T08:31:14;97309.25;;;2.42;82.93
63907;BME280;50075;49.484;11.238;2022-11-20T08:33:39;97306.03;;;2.54;82.85
63907;BME280;50075;49.484;11.238;2022-11-20T08:36:05;97309.69;;;2.68;82.19
63907;BME280;50075;49.484;11.238;2022-11-20T08:38:31;97309.69;;;2.67;82.40
63907;BME280;50075;49.484;11.238;2022-11-20T08:40:58;97303.94;;;2.80;82.19
63907;BME280;50075;49.484;11.238;2022-11-20T08:43:42;97310.66;;;2.73;82.13
63907;BME280;50075;49.484;11.238;2022-11-20T08:46:07;97314.88;;;2.71;82.03
63907;BME280;50075;49.484;11.238;2022-11-20T08:48:32;97306.53;;;2.83;82.29
63907;BME280;50075;49.484;11.238;2022-11-20T08:50:58;97314.75;;;2.62;82.02
63907;BME280;50075;49.484;11.238;2022-11-20T08:53:24;97312.66;;;2.90;82.28
63907;BME280;50075;49.484;11.238;2022-11-20T08:55:50;97312.66;;;3.49;83.76
63907;BME280;50075;49.484;11.238;2022-11-20T08:58:15;97312.25;;;3.83;85.44
63907;BME280;50075;49.484;11.238;2022-11-20T09:00:40;97312.50;;;3.39;84.59
63907;BME280;50075;49.484;11.238;2022-11-20T09:03:06;97309.16;;;3.45;82.86
63907;BME280;50075;49.484;11.238;2022-11-20T09:05:31;97311.28;;;3.14;81.85
63907;BME280;50075;49.484;11.238;2022-11-20T09:07:57;97311.00;;;2.95;81.81
63907;BME280;50075;49.484;11.238;2022-11-20T09:10:23;97312.31;;;3.24;81.22
63907;BME280;50075;49.484;11.238;2022-11-20T09:12:49;97303.53;;;3.11;80.91
63907;BME280;50075;49.484;11.238;2022-11-20T09:15:14;97297.25;;;2.92;81.21
63907;BME280;50075;49.484;11.238;2022-11-20T09:17:40;97306.94;;;3.10;81.16
63907;BME280;50075;49.484;11.238;2022-11-20T09:20:05;97299.44;;;3.24;81.01
63907;BME280;50075;49.484;11.238;2022-11-20T09:22:31;97293.72;;;3.42;81.01
63907;BME280;50075;49.484;11.238;2022-11-20T09:24:56;97301.00;;;3.14;80.49
63907;BME280;50075;49.484;11.238;2022-11-20T09:27:21;97290.72;;;3.12;80.69
63907;BME280;50075;49.484;11.238;2022-11-20T09:29:47;97287.56;;;3.32;80.44
63907;BME280;50075;49.484;11.238;2022-11-20T09:32:12;97296.63;;;3.07;80.53
63907;BME280;50075;49.484;11.238;2022-11-20T09:34:37;97294.84;;;3.03;80.82
63907;BME280;50075;49.484;11.238;2022-11-20T09:37:03;97285.97;;;2.83;81.30
63907;BME280;50075;49.484;11.238;2022-11-20T09:39:28;97290.31;;;2.86;83.89
63907;BME280;50075;49.484;11.238;2022-11-20T09:47:46;97277.94;;;7.57;86.76
63907;BME280;50075;49.484;11.238;2022-11-20T09:53:30;97289.72;;;3.64;88.76
63907;BME280;50075;49.484;11.238;2022-11-20T09:56:02;97289.47;;;3.46;88.76
63907;BME280;50075;49.484;11.238;2022-11-20T10:01:12;97294.72;;;3.55;88.81
63907;BME280;50075;49.484;11.238;2022-11-20T10:06:17;97296.25;;;3.41;89.12
63907;BME280;50075;49.484;11.238;2022-11-20T10:09:40;97287.72;;;3.43;89.00
63907;BME280;50075;49.484;11.238;2022-11-20T10:14:48;97278.00;;;3.23;90.04
63907;BME280;50075;49.484;11.238;2022-11-20T10:20:20;97278.13;;;3.33;89.84
63907;BME280;50075;49.484;11.238;2022-11-20T10:25:44;97276.94;;;3.07;89.55
63907;BME280;50075;49.484;11.238;2022-11-20T10:28:22;97278.28;;;3.42;89.37
63907;BME280;50075;49.484;11.238;2022-11-20T10:31:14;97267.59;;;3.12;88.35
63907;BME280;50075;49.484;11.238;2022-11-20T10:33:44;97264.28;;;3.21;88.48
63907;BME280;50075;49.484;11.238;2022-11-20T10:36:19;97267.19;;;2.84;87.64
63907;BME280;50075;49.484;11.238;2022-11-20T10:38:51;97274.41;;;3.10;87.61
63907;BME280;50075;49.484;11.238;2022-11-20T10:41:24;97265.16;;;3.23;87.27
63907;BME280;50075;49.484;11.238;2022-11-20T10:44:03;97265.44;;;3.44;85.99
63907;BME280;50075;49.484;11.238;2022-11-20T10:46:36;97259.97;;;3.19;85.51
63907;BME280;50075;49.484;11.238;2022-11-20T10:49:05;97253.91;;;3.15;85.25
63907;BME280;50075;49.484;11.238;2022-11-20T10:51:40;97259.81;;;3.09;85.45
63907;BME280;50075;49.484;11.238;2022-11-20T10:54:41;97252.34;;;3.25;85.09
63907;BME280;50075;49.484;11.238;2022-11-20T11:00:09;97246.94;;;3.73;84.50
63907;BME280;50075;49.484;11.238;2022-11-20T11:02:46;97251.09;;;3.63;83.63
63907;BME280;50075;49.484;11.238;2022-11-20T11:05:40;97237.59;;;3.80;83.26
63907;BME280;50075;49.484;11.238;2022-11-20T11:08:05;97230.78;;;3.82;82.67
63907;BME280;50075;49.484;11.238;2022-11-20T11:10:47;97239.81;;;3.50;82.98
63907;BME280;50075;49.484;11.238;2022-11-20T11:13:24;97235.84;;;3.77;84.03
63907;BME280;50075;49.484;11.238;2022-11-20T11:15:51;97232.94;;;3.50;84.01
63907;BME280;50075;49.484;11.238;2022-11-20T11:18:29;97231.13;;;3.40;84.37
63907;BME280;50075;49.484;11.238;2022-11-20T11:20:56;97230.13;;;3.30;84.56
63907;BME280;50075;49.484;11.238;2022-11-20T11:23:39;97238.31;;;3.01;85.09
63907;BME280;50075;49.484;11.238;2022-11-20T11:26:18;97241.03;;;3.12;86.16
63907;BME280;50075;49.484;11.238;2022-11-20T11:31:32;97279.41;;;3.03;90.22
63907;BME280;50075;49.484;11.238;2022-11-20T11:34:11;97284.59;;;3.04;90.29
63907;BME280;50075;49.484;11.238;2022-11-20T11:36:37;97300.09;;;3.09;90.40
63907;BME280;50075;49.484;11.238;2022-11-20T11:39:05;97275.59;;;2.76;90.70
63907;BME280;50075;49.484;11.238;2022-11-20T11:41:33;97271.50;;;2.87;91.34
63907;BME280;50075;49.484;11.238;2022-11-20T11:44:20;97248.47;;;2.93;92.00
63907;BME280;50075;49.484;11.238;2022-11-20T11:47:09;97261.66;;;3.17;92.76
63907;BME280;50075;49.484;11.238;2022-11-20T11:49:36;97264.22;;;3.83;94.17
63907;BME280;50075;49.484;11.238;2022-11-20T11:54:53;97258.19;;;3.81;98.44
63907;BME280;50075;49.484;11.238;2022-11-20T12:00:14;97261.16;;;4.17;99.49
63907;BME280;50075;49.484;11.238;2022-11-20T12:10:40;97247.97;;;4.76;99.63
63907;BME280;50075;49.484;11.238;2022-11-20T12:15:47;97249.13;;;5.23;100.00
63907;BME280;50075;49.484;11.238;2022-11-20T12:18:18;97254.63;;;5.95;100.00
63907;BME280;50075;49.484;11.238;2022-11-20T12:21:08;97251.00;;;5.49;100.00
63907;BME280;50075;49.484;11.238;2022-11-20T12:29:46;97257.13;;;5.78;100.00
63907;BME280;50075;49.484;11.238;2022-11-20T12:37:41;97253.31;;;5.04;100.00
63907;BME280;50075;49.484;11.238;2022-11-20T12:48:41;97252.16;;;6.29;100.00
63907;BME280;50075;49.484;11.238;2022-11-20T12:56:39;97234.59;;;5.36;100.00
63907;BME280;50075;49.484;11.238;2022-11-20T13:04:41;97227.78;;;5.44;100.00
63907;BME280;50075;49.484;11.238;2022-11-20T13:07:13;97213.94;;;5.31;99.87
63907;BME280;50075;49.484;11.238;2022-11-20T13:09:48;97224.19;;;5.19;99.26
63907;BME280;50075;49.484;11.238;2022-11-20T13:12:24;97221.63;;;5.20;99.12
63907;BME280;50075;49.484;11.238;2022-11-20T13:18:01;97235.09;;;4.80;97.43
63907;BME280;50075;49.484;11.238;2022-11-20T13:20:29;97230.16;;;5.15;97.38
63907;BME280;50075;49.484;11.238;2022-11-20T13:22:56;97230.88;;;4.92;96.96
63907;BME280;50075;49.484;11.238;2022-11-20T13:25:31;97222.22;;;4.80;96.58
63907;BME280;50075;49.484;11.238;2022-11-20T13:27:59;97224.72;;;4.71;96.77
63907;BME280;50075;49.484;11.238;2022-11-20T13:30:29;97222.31;;;4.91;96.85
63907;BME280;50075;49.484;11.238;2022-11-20T13:32:57;97219.09;;;5.27;96.83
63907;BME280;50075;49.484;11.238;2022-11-20T13:41:00;97224.97;;;5.07;95.56
63907;BME280;50075;49.484;11.238;2022-11-20T13:43:46;97225.88;;;5.09;95.37
63907;BME280;50075;49.484;11.238;2022-11-20T13:46:12;97230.03;;;4.90;95.46
63907;BME280;50075;49.484;11.238;2022-11-20T13:48:40;97224.88;;;4.93;95.23
63907;BME280;50075;49.484;11.238;2022-11-20T13:54:02;97213.78;;;5.06;95.39
63907;BME280;50075;49.484;11.238;2022-11-20T13:56:47;97221.50;;;5.02;95.46
63907;BME280;50075;49.484;11.238;2022-11-20T13:59:32;97219.72;;;4.90;95.54
63907;BME280;50075;49.484;11.238;2022-11-20T14:02:01;97232.47;;;4.74;95.68
63907;BME280;50075;49.484;11.238;2022-11-20T14:04:33;97225.56;;;4.68;95.82
63907;BME280;50075;49.484;11.238;2022-11-20T14:07:01;97227.28;;;4.69;95.60
63907;BME280;50075;49.484;11.238;2022-11-20T14:09:27;97227.03;;;4.38;95.73
63907;BME280;50075;49.484;11.238;2022-11-20T14:11:53;97225.28;;;4.36;96.06
63907;BME280;50075;49.484;11.238;2022-11-20T14:14:20;97234.63;;;4.21;96.05
63907;BME280;50075;49.484;11.238;2022-11-20T14:16:48;97240.69;;;4.28;96.28
63907;BME280;50075;49.484;11.238;2022-11-20T14:21:45;97240.56;;;4.17;96.75
63907;BME280;50075;49.484;11.238;2022-11-20T14:24:12;97239.94;;;4.41;96.68
63907;BME280;50075;49.484;11.238;2022-11-20T14:26:41;97234.69;;;4.29;96.72
63907;BME280;50075;49.484;11.238;2022-11-20T14:29:23;97237.31;;;4.38;96.58
63907;BME280;50075;49.484;11.238;2022-11-20T14:31:52;97238.16;;;4.36;96.67
63907;BME280;50075;49.484;11.238;2022-11-20T14:34:22;97233.81;;;4.30;96.74
63907;BME280;50075;49.484;11.238;2022-11-20T14:36:52;97222.81;;;4.47;96.25
63907;BME280;50075;49.484;11.238;2022-11-20T14:39:25;97227.19;;;4.55;95.96
63907;BME280;50075;49.484;11.238;2022-11-20T14:41:54;97231.38;;;4.44;95.67
63907;BME280;50075;49.484;11.238;2022-11-20T14:44:27;97232.16;;;4.37;95.42